Potengi, Brazil
Current Conditions -  °F | °C
As of 2:00 PM on Friday 19 Dec 2014 (Local Time) from SBJU Reporting Station
Few Clouds Few Clouds  
Wind Chill: 93°   Ceiling: Unl
Heat Index: 97°   Visibility: 6mi
Dew Point: 68°   Wind: 8mph
Humidity: 44%   Direction: 140°SE
Pressure: 29.91"   Gusts: NA
Location:  7.09°S, 40.03°W
Report Text: SBJU 191700Z 14007KT 9999 FEW020 34/20 Q1013
Loading
Personal Weather Stations






























Interactive Weather Map New forecast layout! Learn more

10-Day Weather Forecast

Advertisements
Track Severe Weather on mobile